Latest Coastal Weather Observations for Gabo Island (VIC)

IDN60701

Issued at 1:35 am EST Thursday 18 September 2014 (issued every 10 minutes, with the page automatically refreshed every 10 minutes)

About coastal observations | Map of coastal stations | Coastal observations for NSW | Marine services | Other Formats
Station Details ID: 084016 Name: GABO ISLAND LIGHTHOUSE Lat: -37.57 Lon: 149.92 Height: 15.2 m
Data from the previous 72 hours. | See also: Recent months at Gabo Island (VIC)
Date/Time
EST
Temp

°C
Wind Pressure Rain
since 9am
mm
Weather Cloud Vis
km
Sea
Height
m
Swell
Dir
 
Speed
knots
Gust
knots
hPa Trend Height
m
Period
s
Dir
18/01:33am 9.1 WSW 28 38 1013.2 - 0.6 - - - - - - -
18/01:30am 8.9 WSW 29 38 1013.2 - 0.6 - - - - - - -
18/01:00am 9.7 W 27 35 1013.2 - 0.6 - - - - - - -
18/12:30am 9.3 W 25 38 1013.4 - 0.6 - - - - - - -
18/12:02am 9.1 W 25 35 1013.5 - 0.6 - - - - - - -
18/12:00am 8.8 W 27 35 1013.4 - 0.6 - - - - - - -
 
Date/Time
EST
Temp

°C
Wind Pressure Rain
since 9am
mm
Weather Cloud Vis
km
Sea
Height
m
Swell
Dir
 
Speed
knots
Gust
knots
hPa Trend Height
m
Period
s
Dir
17/11:44pm 9.2 WSW 26 38 1013.8 - 0.4 - - - - - - -
17/11:30pm 9.9 W 27 35 1013.6 - 0.2 - - - - - - -
17/11:00pm 9.9 W 27 33 1013.5 - 0.2 - - - - - - -
17/10:30pm 9.8 WSW 23 31 1013.4 - 0.2 - - - - - - -
17/10:00pm 10.6 WSW 31 44 1013.0 - 0.2 - - - - - - -
17/09:45pm 11.0 WSW 29 43 1013.0 - 0.2 - - - - - - -
17/09:30pm 10.9 WSW 27 35 1012.7 - 0.2 - - - - - - -
17/09:11pm 10.9 W 24 34 1012.8 - 0.2 - - - - - - -
17/09:00pm 11.1 W 26 31 1012.7 - 0.2 Fine Partly cloudy 30 3 3.0 - SW
17/08:30pm 11.0 WSW 28 35 1012.2 - 0.2 - - - - - - -
17/08:13pm 10.8 W 28 38 1012.2 - 0.2 - - - - - - -
17/08:00pm 10.6 W 28 35 1012.2 - 0.2 - - - - - - -
17/07:30pm 10.8 W 29 36 1011.8 - 0.2 - - - - - - -
17/07:05pm 10.5 WSW 33 43 1011.8 - 0.2 - - - - - - -
17/07:00pm 10.5 WSW 36 44 1011.7 - 0.2 - - - - - - -
17/06:41pm 11.4 WSW 38 52 1011.2 - 0.2 - - - - - - -
17/06:36pm 11.7 WSW 32 42 1011.3 - 0.2 - - - - - - -
17/06:30pm 11.7 WSW 31 40 1011.2 - 0.2 - - - - - - -
17/06:00pm 11.3 SW 34 43 1010.8 - 0.2 - - - - - - -
17/05:39pm 12.4 SW 35 45 1010.2 - 0.2 - - - - - - -
17/05:38pm 12.7 SW 34 39 1010.2 - 0.2 - - - - - - -
17/05:32pm 12.8 WSW 21 31 1010.4 - 0.2 - - - - - - -
17/05:30pm 13.0 WSW 22 28 1010.3 - 0.2 - - - - - - -
17/05:00pm 12.7 WSW 27 37 1009.7 - 0.2 - - - - - - -
17/04:57pm 12.6 WSW 27 37 1009.6 - 0.2 - - - - - - -
17/04:30pm 12.4 WSW 28 36 1009.4 - 0.2 - - - - - - -
17/04:00pm 13.5 SW 30 37 1009.0 - 0.0 - - - - - - -
17/03:30pm 13.4 SW 26 33 1008.6 - 0.0 - - - - - - -
17/03:00pm 13.8 SW 33 41 1008.0 - 0.0 Distant precip. Mostly cloudy 10 3 3.0 - S
17/02:30pm 15.0 SW 28 35 1007.8 - 0.0 - - - - - - -
17/02:00pm 15.0 SW 28 33 1007.6 - 0.0 - - - - - - -
17/01:30pm 15.1 SW 26 31 1007.6 - 0.0 - - - - - - -
17/01:00pm 15.6 SW 20 27 1007.9 - 0.0 - - - - - - -
17/12:43pm 15.2 SW 23 28 1007.9 - 0.0 - - - - - - -
17/12:30pm 16.9 W 17 23 1007.8 - 0.0 - - - - - - -
17/12:00pm 16.1 W 19 25 1008.3 - 0.0 - - - - - - -
17/11:30am 15.5 WSW 19 26 1008.6 - 0.0 - - - - - - -
17/11:00am 15.8 WSW 25 30 1008.9 - 0.0 - - - - - - -
17/10:30am 15.4 WSW 22 27 1009.1 - 0.0 - - - - - - -
17/10:09am 14.3 WSW 23 33 1009.3 - 0.0 - - - - - - -
17/10:00am 14.7 WSW 19 27 1009.5 - 0.0 - - - - - - -
17/09:30am 14.1 WSW 19 23 1009.6 - 0.0 - - - - - - -
17/09:00am 13.5 W 24 29 1009.8 - 2.0 Fine Mostly cloudy 30 2 1.0 - S
17/08:30am 13.4 WSW 20 27 1010.0 - 2.0 - - - - - - -
17/08:00am 12.5 W 22 29 1010.0 - 2.0 - - - - - - -
17/07:30am 12.4 W 21 28 1009.7 - 2.0 - - - - - - -
17/07:00am 12.0 W 24 30 1009.3 - 2.0 - - - - - - -
17/06:30am 11.5 WSW 22 27 1009.5 - 2.0 - - - - - - -
17/06:00am 11.8 W 20 25 1009.3 - 2.0 - - - - - - -
17/05:30am 11.8 W 22 29 1009.0 - 2.0 - - - - - - -
17/05:00am 12.0 WSW 27 35 1008.4 - 2.0 - - - - - - -
17/04:54am 11.9 WSW 25 35 1008.3 - 2.0 - - - - - - -
17/04:30am 12.2 WSW 26 32 1008.1 - 2.0 - - - - - - -
17/04:00am 12.1 WSW 24 30 1008.0 - 2.0 - - - - - - -
17/03:30am 12.4 WSW 23 31 1007.9 - 2.0 - - - - - - -
17/03:00am 12.8 WSW 27 34 1007.6 - 2.0 Fine Mostly cloudy 30 2 1.0 - SE
17/02:30am 13.0 WSW 26 32 1007.7 - 2.0 - - - - - - -
17/02:00am 13.0 W 24 31 1007.7 - 2.0 - - - - - - -
17/01:30am 13.2 W 23 32 1008.1 - 2.0 - - - - - - -
17/01:00am 13.2 W 21 27 1008.2 - 2.0 - - - - - - -
17/12:30am 13.1 W 19 25 1008.2 - 2.0 - - - - - - -
17/12:00am 13.6 W 17 24 1008.2 - 2.0 - - - - - - -
 
Date/Time
EST
Temp

°C
Wind Pressure Rain
since 9am
mm
Weather Cloud Vis
km
Sea
Height
m
Swell
Dir
 
Speed
knots
Gust
knots
hPa Trend Height
m
Period
s
Dir
16/11:30pm 13.5 WSW 19 23 1008.2 - 2.0 - - - - - - -
16/11:00pm 13.3 WSW 18 22 1008.5 - 2.0 - - - - - - -
16/10:30pm 13.5 WSW 20 25 1008.6 - 2.0 - - - - - - -
16/10:00pm 14.1 WSW 19 25 1008.6 - 2.0 - - - - - - -
16/09:46pm 14.1 WSW 17 26 1008.5 - 2.0 - - - - - - -
16/09:30pm 13.7 W 10 14 1008.4 - 2.0 - - - - - - -
16/09:00pm 13.5 WNW 7 11 1008.3 - 2.0 Lightning Mostly cloudy 20 2 1.0 - SE
16/08:30pm 13.3 WNW 6 7 1008.2 - 2.0 - - - - - - -
16/08:00pm 13.4 WNW 5 6 1008.1 - 2.0 - - - - - - -
16/07:30pm 13.4 NW 6 8 1008.0 - 2.0 - - - - - - -
16/07:00pm 14.6 N 7 8 1007.5 - 1.8 - - - - - - -
16/06:30pm 14.9 W 6 10 1007.1 - 1.0 - - - - - - -
16/06:00pm 14.9 NNW 7 10 1007.2 - 0.8 - - - - - - -
16/05:30pm 15.0 NNE 15 19 1006.3 - 0.8 - - - - - - -
16/05:00pm 15.1 NE 24 28 1005.5 - 0.8 - - - - - - -
16/04:30pm 15.2 NE 23 26 1005.1 - 0.8 - - - - - - -
16/04:29pm 15.2 NE 23 26 1005.2 - 0.8 - - - - - - -
16/04:00pm 15.5 NNE 18 22 1006.4 - 0.6 - - - - - - -
16/03:30pm 15.6 NE 22 26 1005.8 - 0.6 - - - - - - -
16/03:00pm 16.3 NE 25 30 1005.4 - 0.6 Fine Partly cloudy 15 2 1.0 - SE
16/02:30pm 16.1 ENE 22 26 1005.6 - 0.6 - - - - - - -
16/02:00pm 15.9 ENE 21 25 1006.0 - 0.6 - - - - - - -
16/01:30pm 15.9 ENE 23 28 1006.4 - 0.6 - - - - - - -
16/01:00pm 15.8 ENE 20 24 1006.7 - 0.6 - - - - - - -
16/12:30pm 16.3 ENE 20 24 1007.2 - 0.6 - - - - - - -
16/12:00pm 16.5 NE 20 23 1007.7 - 0.6 - - - - - - -
16/11:30am 16.0 NE 18 22 1008.5 - 0.6 - - - - - - -
16/11:00am 15.9 NE 17 19 1009.0 - 0.6 - - - - - - -
16/10:30am 15.3 NE 18 20 1009.3 - 0.6 - - - - - - -
16/10:00am 15.0 NE 19 21 1009.5 - 0.4 - - - - - - -
16/09:30am 15.0 NE 18 22 1010.1 - 0.2 - - - - - - -
16/09:00am 15.3 NE 21 25 1010.4 - 6.8 Fine Cloudy 10 1 1.0 - SE
16/08:30am 15.3 NE 14 16 1010.1 - 6.8 - - - - - - -
16/08:00am 15.2 NE 15 18 1009.8 - 6.8 - - - - - - -
16/07:30am 15.0 NE 16 19 1009.9 - 6.8 - - - - - - -
16/07:00am 15.0 NE 15 17 1010.0 - 6.8 - - - - - - -
16/06:30am 14.9 NNE 15 19 1010.5 - 6.8 - - - - - - -
16/06:00am 14.9 NE 20 23 1010.4 - 6.8 - - - - - - -
16/05:30am 14.5 NNE 14 17 1010.8 - 6.6 - - - - - - -
16/05:00am 14.4 N 12 15 1011.1 - 6.4 - - - - - - -
16/04:30am 14.0 NE 9 12 1011.2 - 6.4 - - - - - - -
16/04:00am 13.5 NNE 8 10 1011.2 - 6.4 - - - - - - -
16/03:30am 13.7 NNE 12 15 1011.1 - 6.4 - - - - - - -
16/03:00am 13.9 NNE 11 14 1011.4 - 6.4 Fine Cloudy 20 1 1.0 - SE
16/02:30am 14.1 NNE 10 14 1012.0 - 6.4 - - - - - - -
16/02:00am 14.1 NE 15 17 1012.1 - 6.4 - - - - - - -
16/01:30am 14.2 NE 15 17 1012.8 - 6.4 - - - - - - -
16/01:00am 14.0 NE 17 23 1013.0 - 6.4 - - - - - - -
16/12:30am 14.0 NE 14 17 1013.5 - 6.0 - - - - - - -
16/12:00am 14.3 NNE 11 16 1014.0 - 5.6 - - - - - - -
 
Date/Time
EST
Temp

°C
Wind Pressure Rain
since 9am
mm
Weather Cloud Vis
km
Sea
Height
m
Swell
Dir
 
Speed
knots
Gust
knots
hPa Trend Height
m
Period
s
Dir
15/11:30pm 14.6 NNE 9 14 1014.2 - 3.0 - - - - - - -
15/11:00pm 14.6 NE 15 18 1014.4 - 0.4 - - - - - - -
15/10:30pm 14.8 NE 16 19 1014.7 - 0.2 - - - - - - -
15/10:00pm 14.8 NE 16 19 1014.8 - 0.0 - - - - - - -
15/09:30pm 15.0 NE 17 19 1014.9 - 0.0 - - - - - - -
15/09:00pm 15.1 NE 16 18 1015.2 - 0.0 Fine Cloudy 20 1 1.0 - SE
15/08:30pm 15.1 NE 15 17 1015.3 - 0.0 - - - - - - -
15/08:00pm 15.0 NE 14 15 1015.4 - 0.0 - - - - - - -
15/07:30pm 15.1 ENE 13 15 1015.4 - 0.0 - - - - - - -
15/07:00pm 15.0 NE 13 15 1015.3 - 0.0 - - - - - - -
15/06:30pm 14.9 NE 13 15 1015.2 - 0.0 - - - - - - -
15/06:00pm 14.9 NE 13 14 1015.2 - 0.0 - - - - - - -
15/05:30pm 14.8 NE 13 15 1015.2 - 0.0 - - - - - - -
15/05:00pm 14.8 NE 12 13 1015.0 - 0.0 - - - - - - -
15/04:30pm 14.8 NE 11 13 1015.1 - 0.0 - - - - - - -
15/04:00pm 14.9 ENE 10 12 1015.2 - 0.0 - - - - - - -
15/03:30pm 15.1 ENE 9 11 1015.3 - 0.0 - - - - - - -
15/03:00pm 15.1 ENE 9 10 1015.3 - 0.0 Fine Mostly cloudy 40 1 1.0 - SE
15/02:30pm 15.2 E 8 9 1015.4 - 0.0 - - - - - - -
15/02:00pm 15.3 E 7 9 1015.5 - 0.0 - - - - - - -
15/01:30pm 15.4 E 6 8 1015.6 - 0.0 - - - - - - -
15/01:00pm 16.7 ESE 6 8 1016.0 - 0.0 - - - - - - -
15/12:30pm 16.1 SE 6 8 1016.4 - 0.0 - - - - - - -
15/12:00pm 16.2 SSE 7 8 1016.9 - 0.0 - - - - - - -
15/11:30am 15.6 S 6 7 1017.0 - 0.0 - - - - - - -
15/11:00am 15.4 SSW 6 7 1017.6 - 0.0 - - - - - - -
15/10:30am 14.8 SW 6 7 1017.9 - 0.0 - - - - - - -
15/10:00am 15.1 W 6 8 1018.0 - 0.0 - - - - - - -
15/09:30am 14.9 W 7 8 1018.1 - 0.0 - - - - - - -
15/09:00am 14.5 WNW 8 9 1018.3 - 0.0 Fine Mostly clear 25 <0.5 1.0 - S
15/08:30am 14.2 WNW 8 10 1018.3 - 0.0 - - - - - - -
15/08:00am 13.4 WNW 7 9 1018.2 - 0.0 - - - - - - -
15/07:30am 12.7 NW 7 9 1018.1 - 0.0 - - - - - - -
15/07:00am 12.0 NW 7 8 1017.8 - 0.0 - - - - - - -
15/06:30am 11.1 WNW 7 8 1017.6 - 0.0 - - - - - - -
15/06:00am 10.9 WNW 7 9 1017.5 - 0.0 - - - - - - -
15/05:30am 10.7 WNW 7 9 1017.5 - 0.0 - - - - - - -
15/05:00am 10.7 NW 8 10 1017.4 - 0.0 - - - - - - -
15/04:30am 10.7 WNW 8 11 1017.5 - 0.0 - - - - - - -
15/04:00am 10.1 WNW 7 9 1017.6 - 0.0 - - - - - - -
15/03:30am 10.4 WNW 6 9 1017.7 - 0.0 - - - - - - -
15/03:00am 10.4 WNW 8 11 1017.7 - 0.0 Fine Mostly clear 30 1 1.0 - S
15/02:30am 10.2 WNW 10 13 1018.0 - 0.0 - - - - - - -
15/02:00am 10.4 WNW 9 11 1018.1 - 0.0 - - - - - - -

Other Formats:

Comma delimited format used in spreadsheet applications
http://www.bom.gov.au/fwo/IDN60701/IDN60701.94933.axf

JavaScript Object Notation format (JSON) in row-major order
http://www.bom.gov.au/fwo/IDN60701/IDN60701.94933.json